createdAt,value
2024-01-29T00:01:12.552Z,313.27
2024-01-29T00:03:40.632Z,304.95
2024-01-29T00:06:08.316Z,314.45
2024-01-29T00:08:35.984Z,323.10
2024-01-29T00:11:03.913Z,303.58
2024-01-29T00:13:31.372Z,300.42
2024-01-29T00:16:00.880Z,306.55
2024-01-29T00:18:28.863Z,297.77
2024-01-29T00:20:58.633Z,316.30
2024-01-29T00:23:26.297Z,329.23
2024-01-29T00:25:53.946Z,320.10
2024-01-29T00:28:21.788Z,312.98
2024-01-29T00:30:49.697Z,316.63
2024-01-29T00:33:17.435Z,284.80
2024-01-29T00:35:45.205Z,292.77
2024-01-29T00:38:12.933Z,310.35
2024-01-29T00:40:40.616Z,314.70
2024-01-29T00:43:08.242Z,319.05
2024-01-29T00:45:35.976Z,317.98
2024-01-29T00:48:03.882Z,312.88
2024-01-29T00:50:31.630Z,309.50
2024-01-29T00:52:59.289Z,316.50
2024-01-29T00:55:28.308Z,310.63
2024-01-29T00:57:56.042Z,299.85
2024-01-29T01:00:23.814Z,298.00
2024-01-29T01:02:51.562Z,298.85
2024-01-29T01:05:19.541Z,308.10
2024-01-29T01:07:47.341Z,296.30
2024-01-29T01:10:15.119Z,305.45
2024-01-29T01:12:42.924Z,317.17
2024-01-29T01:15:10.844Z,322.27
2024-01-29T01:17:38.407Z,287.60
2024-01-29T01:20:07.604Z,315.10
2024-01-29T01:22:35.582Z,296.65
2024-01-29T01:25:03.610Z,313.10
2024-01-29T01:27:31.444Z,331.13
2024-01-29T01:29:59.139Z,320.35
2024-01-29T01:32:26.909Z,325.85
2024-01-29T01:34:54.738Z,320.52
2024-01-29T01:37:22.458Z,318.35
2024-01-29T01:39:54.282Z,306.73
2024-01-29T01:42:22.570Z,291.42
2024-01-29T01:44:50.420Z,299.50
2024-01-29T01:47:18.240Z,299.60
2024-01-29T01:49:46.058Z,307.05
2024-01-29T01:52:13.880Z,307.95
2024-01-29T01:54:41.808Z,296.30
2024-01-29T01:57:13.686Z,297.90
2024-01-29T01:59:41.576Z,297.30
2024-01-29T02:02:09.907Z,286.08
2024-01-29T02:04:37.941Z,280.33
2024-01-29T02:07:06.660Z,278.13
2024-01-29T02:09:34.932Z,283.02
2024-01-29T02:12:02.969Z,275.27
2024-01-29T02:14:30.929Z,284.02
2024-01-29T02:17:01.290Z,279.98
2024-01-29T02:19:29.124Z,271.60
2024-01-29T02:21:56.927Z,303.90
2024-01-29T02:24:24.773Z,298.88
2024-01-29T02:26:52.897Z,297.83
2024-01-29T02:29:20.690Z,296.52
2024-01-29T02:31:48.606Z,297.67
2024-01-29T02:34:17.361Z,302.90
2024-01-29T02:36:49.328Z,313.88
2024-01-29T02:39:19.614Z,295.02
2024-01-29T02:41:47.480Z,296.90
2024-01-29T02:44:15.213Z,295.20
2024-01-29T02:46:42.904Z,300.58
2024-01-29T02:49:10.737Z,286.30
2024-01-29T02:51:38.666Z,287.23
2024-01-29T02:54:06.573Z,289.02
2024-01-29T02:56:34.607Z,289.88
2024-01-29T02:59:02.545Z,288.30
2024-01-29T03:01:30.753Z,281.08
2024-01-29T03:03:58.783Z,295.17
2024-01-29T03:06:26.678Z,291.05
2024-01-29T03:08:54.706Z,281.42
2024-01-29T03:11:22.351Z,287.95
2024-01-29T03:13:50.284Z,296.05
2024-01-29T03:16:18.590Z,301.88
2024-01-29T03:18:46.642Z,271.83
2024-01-29T03:21:15.234Z,253.25
2024-01-29T03:23:43.020Z,291.98
2024-01-29T03:26:11.003Z,299.48
2024-01-29T03:28:38.994Z,296.67
2024-01-29T03:31:07.211Z,301.23
2024-01-29T03:33:35.154Z,304.23
2024-01-29T03:36:06.916Z,297.35
2024-01-29T03:41:02.317Z,299.90
2024-01-29T03:43:33.654Z,284.73
2024-01-29T03:46:01.500Z,293.65
2024-01-29T03:48:30.018Z,289.20
2024-01-29T03:50:57.759Z,271.50
2024-01-29T03:53:25.586Z,262.10
2024-01-29T03:55:54.025Z,276.73
2024-01-29T03:58:22.340Z,287.00
2024-01-29T04:00:50.161Z,268.27
2024-01-29T04:03:17.977Z,274.20
2024-01-29T04:05:46.396Z,287.30
2024-01-29T04:08:14.137Z,291.80
2024-01-29T04:10:41.777Z,294.23
2024-01-29T04:13:09.552Z,281.48
2024-01-29T04:15:37.322Z,291.23
2024-01-29T04:18:05.348Z,291.10
2024-01-29T04:20:32.968Z,301.95
2024-01-29T04:23:00.606Z,294.27
2024-01-29T04:25:28.339Z,291.50
2024-01-29T04:27:56.397Z,299.75
2024-01-29T04:30:30.912Z,293.08
2024-01-29T04:33:11.006Z,288.65
2024-01-29T04:35:38.807Z,301.35
2024-01-29T04:38:06.493Z,306.20
2024-01-29T04:40:40.104Z,308.95
2024-01-29T04:43:07.858Z,295.20
2024-01-29T04:45:35.626Z,306.02
2024-01-29T04:48:03.796Z,306.30
2024-01-29T04:50:31.552Z,295.63
2024-01-29T04:52:59.358Z,293.40
2024-01-29T04:55:27.133Z,312.45
2024-01-29T04:57:55.073Z,302.90
2024-01-29T05:00:22.830Z,304.10
2024-01-29T05:02:50.386Z,303.20
2024-01-29T05:05:18.291Z,296.27
2024-01-29T05:07:45.970Z,276.45
2024-01-29T05:10:13.811Z,280.98
2024-01-29T05:12:41.665Z,288.00
2024-01-29T05:15:09.420Z,295.80
2024-01-29T05:17:37.422Z,289.45
2024-01-29T05:20:06.045Z,287.05
2024-01-29T05:22:33.898Z,286.25
2024-01-29T05:25:01.816Z,287.27
2024-01-29T05:27:29.667Z,293.73
2024-01-29T05:29:57.454Z,282.25
2024-01-29T05:32:25.188Z,295.10
2024-01-29T05:34:53.031Z,293.50
2024-01-29T05:37:20.868Z,290.85
2024-01-29T05:39:48.742Z,292.00
2024-01-29T05:42:16.540Z,290.77
2024-01-29T05:44:44.173Z,277.38
2024-01-29T05:47:11.915Z,276.00
2024-01-29T05:49:40.229Z,275.63
2024-01-29T05:52:07.991Z,267.38
2024-01-29T05:54:35.840Z,244.88
2024-01-29T05:57:03.972Z,262.40
2024-01-29T05:59:31.650Z,254.20
2024-01-29T06:01:59.591Z,255.63
2024-01-29T06:04:27.699Z,255.88
2024-01-29T06:06:55.607Z,253.80
2024-01-29T06:09:26.371Z,246.65
2024-01-29T06:11:55.793Z,243.68
2024-01-29T06:14:23.841Z,254.82
2024-01-29T06:16:51.571Z,256.33
2024-01-29T06:19:20.673Z,253.18
2024-01-29T06:21:49.977Z,250.43
2024-01-29T06:24:18.145Z,240.68
2024-01-29T06:26:48.907Z,250.38
2024-01-29T06:29:17.355Z,256.52
2024-01-29T06:31:45.191Z,248.23
2024-01-29T06:34:12.935Z,241.68
2024-01-29T06:36:40.812Z,271.30
2024-01-29T06:39:09.159Z,268.20
2024-01-29T06:41:36.942Z,276.25
2024-01-29T06:44:04.786Z,261.30
2024-01-29T06:46:33.802Z,266.23
2024-01-29T06:49:01.426Z,277.45
2024-01-29T06:51:29.293Z,283.98
2024-01-29T06:53:58.925Z,287.33
2024-01-29T06:56:26.831Z,284.00
2024-01-29T06:58:54.619Z,282.23
2024-01-29T07:01:22.474Z,276.65
2024-01-29T07:03:50.520Z,282.92
2024-01-29T07:06:18.552Z,272.25
2024-01-29T07:08:46.266Z,279.73
2024-01-29T07:11:14.121Z,292.70
2024-01-29T07:13:41.943Z,283.20
2024-01-29T07:16:09.957Z,289.42
2024-01-29T07:18:38.958Z,276.00
2024-01-29T07:21:07.710Z,285.63
2024-01-29T07:23:35.460Z,280.42
2024-01-29T07:26:03.493Z,277.55
2024-01-29T07:28:32.761Z,260.38
2024-01-29T07:31:00.438Z,263.10
2024-01-29T07:33:28.358Z,250.48
2024-01-29T07:35:56.680Z,263.90
2024-01-29T07:38:24.878Z,266.67
2024-01-29T07:40:52.652Z,259.88
2024-01-29T07:43:20.497Z,261.65
2024-01-29T07:45:48.229Z,256.38
2024-01-29T07:48:16.120Z,271.55
2024-01-29T07:50:43.948Z,273.83
2024-01-29T07:53:11.679Z,263.65
2024-01-29T07:55:39.551Z,265.25
2024-01-29T07:58:08.774Z,271.33
2024-01-29T08:00:36.806Z,278.35
2024-01-29T08:03:05.142Z,277.38
2024-01-29T08:05:33.337Z,283.08
2024-01-29T08:08:01.172Z,288.45
2024-01-29T08:10:28.791Z,285.58
2024-01-29T08:12:56.486Z,297.45
2024-01-29T08:15:25.148Z,283.55
2024-01-29T08:17:53.072Z,265.67
2024-01-29T08:20:21.249Z,284.13
2024-01-29T08:22:49.013Z,289.27
2024-01-29T08:25:16.913Z,285.85
2024-01-29T08:27:44.521Z,284.90
2024-01-29T08:30:12.406Z,289.48
2024-01-29T08:32:41.301Z,291.15
2024-01-29T08:35:10.334Z,290.63
2024-01-29T08:37:38.254Z,287.23
2024-01-29T08:40:07.070Z,293.52
2024-01-29T08:42:34.831Z,276.48
2024-01-29T08:45:02.662Z,280.90
2024-01-29T08:47:30.738Z,280.65
2024-01-29T08:49:58.831Z,286.02
2024-01-29T08:52:26.676Z,282.35
2024-01-29T08:54:54.616Z,300.50
2024-01-29T08:57:22.245Z,292.38
2024-01-29T08:59:50.035Z,281.33
2024-01-29T09:02:17.785Z,280.35
2024-01-29T09:04:45.647Z,270.17
2024-01-29T09:07:13.787Z,274.52
2024-01-29T09:09:43.026Z,268.92
2024-01-29T09:12:11.011Z,268.70
2024-01-29T09:14:38.684Z,274.67
2024-01-29T09:17:06.470Z,278.67
2024-01-29T09:19:34.393Z,283.25
2024-01-29T09:22:02.162Z,275.90
2024-01-29T09:24:31.337Z,264.77
2024-01-29T09:26:59.938Z,279.73
2024-01-29T09:29:27.652Z,275.75
2024-01-29T09:31:55.360Z,268.60
2024-01-29T09:34:26.267Z,277.13
2024-01-29T09:36:54.582Z,282.80
2024-01-29T09:39:25.037Z,276.70
2024-01-29T09:41:53.456Z,281.85
2024-01-29T09:44:22.644Z,275.70
2024-01-29T09:46:51.274Z,273.52
2024-01-29T09:49:19.530Z,263.58
2024-01-29T09:51:48.577Z,280.80
2024-01-29T09:54:16.437Z,280.45
2024-01-29T09:56:44.231Z,276.23
2024-01-29T09:59:12.021Z,271.75
2024-01-29T10:01:42.124Z,264.23
2024-01-29T10:04:10.223Z,262.73
2024-01-29T10:06:38.066Z,274.23
2024-01-29T10:09:06.177Z,254.85
2024-01-29T10:11:33.969Z,265.83
2024-01-29T10:14:01.977Z,265.00
2024-01-29T10:16:29.997Z,267.58
2024-01-29T10:18:59.273Z,275.65
2024-01-29T10:21:27.733Z,269.42
2024-01-29T10:23:58.964Z,254.63
2024-01-29T10:26:28.153Z,279.83
2024-01-29T10:29:07.032Z,282.52
2024-01-29T10:31:35.070Z,289.15
2024-01-29T10:34:04.988Z,283.02
2024-01-29T10:36:33.497Z,286.17
2024-01-29T10:39:01.517Z,284.70
2024-01-29T10:41:33.345Z,300.58
2024-01-29T10:46:37.691Z,289.15
2024-01-29T10:49:06.244Z,279.42
2024-01-29T10:51:35.440Z,285.10
2024-01-29T10:54:03.569Z,289.00
2024-01-29T10:56:31.912Z,286.95
2024-01-29T10:59:03.195Z,281.10
2024-01-29T11:04:02.370Z,277.20
2024-01-29T11:06:48.459Z,279.65
2024-01-29T11:09:20.747Z,286.80
2024-01-29T11:11:49.960Z,285.23
2024-01-29T11:14:21.186Z,281.90
2024-01-29T11:16:53.192Z,286.13
2024-01-29T11:21:53.012Z,269.55
2024-01-29T11:24:24.119Z,279.08
2024-01-29T11:26:54.554Z,279.13
2024-01-29T11:29:24.058Z,276.98
2024-01-29T11:31:55.255Z,276.20
2024-01-29T11:34:30.211Z,197.60
2024-01-29T11:36:58.889Z,272.40
2024-01-29T11:39:28.766Z,270.05
2024-01-29T11:41:57.708Z,271.00
2024-01-29T11:44:27.130Z,270.00
2024-01-29T11:46:56.662Z,269.10
2024-01-29T11:49:28.177Z,283.70
2024-01-29T11:51:56.473Z,290.98
2024-01-29T11:54:25.542Z,286.83
2024-01-29T11:56:53.362Z,276.10
2024-01-29T11:59:21.113Z,284.73
2024-01-29T12:01:51.448Z,282.20
2024-01-29T12:04:19.602Z,263.98
2024-01-29T12:06:47.511Z,280.92
2024-01-29T12:09:15.780Z,285.00
2024-01-29T12:11:43.562Z,275.15
2024-01-29T12:14:11.342Z,285.70
2024-01-29T12:16:39.132Z,276.48
2024-01-29T12:19:07.043Z,269.85
2024-01-29T12:21:36.311Z,273.80
2024-01-29T12:24:04.480Z,272.58
2024-01-29T12:26:32.375Z,270.58
2024-01-29T12:29:02.896Z,275.17
2024-01-29T12:31:31.728Z,284.10
2024-01-29T12:33:59.598Z,253.50
2024-01-29T12:36:27.554Z,255.48
2024-01-29T12:38:58.662Z,266.17
2024-01-29T12:41:34.805Z,293.50
2024-01-29T12:44:12.750Z,277.95
2024-01-29T12:46:41.011Z,283.27
2024-01-29T12:49:09.199Z,289.02
2024-01-29T12:51:37.578Z,278.25
2024-01-29T12:54:06.224Z,248.18
2024-01-29T12:56:34.259Z,264.55
2024-01-29T12:59:07.871Z,272.40
2024-01-29T13:01:36.023Z,267.45
2024-01-29T13:04:04.338Z,271.63
2024-01-29T13:06:32.468Z,268.13
2024-01-29T13:09:00.226Z,253.02
2024-01-29T13:11:28.162Z,256.23
2024-01-29T13:13:56.007Z,269.08
2024-01-29T13:16:23.877Z,266.88
2024-01-29T13:18:51.835Z,264.95
2024-01-29T13:21:22.381Z,258.38
2024-01-29T13:23:50.311Z,272.98
2024-01-29T13:26:19.405Z,257.70
2024-01-29T13:28:47.310Z,264.88
2024-01-29T13:31:15.280Z,254.48
2024-01-29T13:33:43.411Z,246.35
2024-01-29T13:36:11.381Z,253.02
2024-01-29T13:38:40.055Z,269.50
2024-01-29T13:41:10.509Z,263.70
2024-01-29T13:43:38.518Z,265.92
2024-01-29T13:46:06.339Z,271.80
2024-01-29T13:48:34.629Z,270.77
2024-01-29T13:51:02.958Z,272.13
2024-01-29T13:53:30.741Z,274.67
2024-01-29T13:55:58.469Z,274.95
2024-01-29T13:58:26.820Z,275.88
2024-01-29T14:00:54.697Z,260.02
2024-01-29T14:03:22.777Z,274.02
2024-01-29T14:05:50.404Z,274.35
2024-01-29T14:08:18.016Z,279.98
2024-01-29T14:10:45.839Z,275.85
2024-01-29T14:13:17.237Z,254.18
2024-01-29T14:15:45.245Z,273.98
2024-01-29T14:18:13.036Z,272.17
2024-01-29T14:20:40.825Z,277.27
2024-01-29T14:23:09.531Z,256.70
2024-01-29T14:25:37.262Z,272.52
2024-01-29T14:28:05.327Z,268.63
2024-01-29T14:30:33.166Z,269.17
2024-01-29T14:33:01.267Z,281.88
2024-01-29T14:35:29.076Z,281.58
2024-01-29T14:37:56.893Z,290.88
2024-01-29T14:40:24.733Z,286.33
2024-01-29T14:42:52.506Z,267.40
2024-01-29T14:45:20.379Z,274.58
2024-01-29T14:47:50.012Z,259.50
2024-01-29T14:50:17.835Z,269.20
2024-01-29T14:52:45.462Z,243.00
2024-01-29T14:55:13.201Z,241.38
2024-01-29T14:57:42.169Z,257.77
2024-01-29T15:00:10.409Z,254.65
2024-01-29T15:02:38.237Z,243.20
2024-01-29T15:05:10.191Z,233.80
2024-01-29T15:07:40.441Z,250.30
2024-01-29T15:10:12.995Z,267.35
2024-01-29T15:12:44.581Z,254.77
2024-01-29T15:15:12.565Z,251.20
2024-01-29T15:17:40.450Z,265.35
2024-01-29T15:20:09.697Z,268.20
2024-01-29T15:22:37.653Z,271.63
2024-01-29T15:25:06.678Z,271.55
2024-01-29T15:27:34.624Z,275.20
2024-01-29T15:30:02.616Z,275.75
2024-01-29T15:32:32.145Z,275.80
2024-01-29T15:34:59.850Z,265.85
2024-01-29T15:37:28.785Z,285.33
2024-01-29T15:39:56.569Z,270.00
2024-01-29T15:42:29.934Z,277.48
2024-01-29T15:44:57.705Z,259.40
2024-01-29T15:47:25.686Z,269.77
2024-01-29T15:49:53.440Z,261.33
2024-01-29T15:52:21.268Z,269.65
2024-01-29T15:54:48.962Z,250.88
2024-01-29T15:57:16.847Z,254.52
2024-01-29T15:59:46.435Z,266.85
2024-01-29T16:02:14.255Z,270.30
2024-01-29T16:04:44.136Z,276.92
2024-01-29T16:07:12.228Z,285.25
2024-01-29T16:09:40.163Z,283.70
2024-01-29T16:12:08.385Z,280.02
2024-01-29T16:14:36.873Z,275.23
2024-01-29T16:17:05.386Z,270.67
2024-01-29T16:19:33.286Z,265.70
2024-01-29T16:22:01.021Z,266.50
2024-01-29T16:24:28.885Z,272.00
2024-01-29T16:26:56.612Z,278.67
2024-01-29T16:29:26.121Z,282.70
2024-01-29T16:31:54.216Z,274.85
2024-01-29T16:34:23.609Z,296.45
2024-01-29T16:36:52.607Z,294.02
2024-01-29T16:39:20.811Z,294.52
2024-01-29T16:41:48.537Z,293.30
2024-01-29T16:44:16.996Z,284.33
2024-01-29T16:46:44.784Z,279.83
2024-01-29T16:49:12.624Z,278.23
2024-01-29T16:51:40.598Z,281.65
2024-01-29T16:54:08.390Z,286.17
2024-01-29T16:56:38.622Z,280.50
2024-01-29T16:59:08.742Z,283.52
2024-01-29T17:01:37.118Z,273.25
2024-01-29T17:04:05.255Z,281.92
2024-01-29T17:06:33.224Z,283.05
2024-01-29T17:09:01.190Z,276.30
2024-01-29T17:11:28.966Z,286.55
2024-01-29T17:13:56.714Z,284.48
2024-01-29T17:16:25.282Z,285.52
2024-01-29T17:18:53.181Z,279.52
2024-01-29T17:21:21.845Z,269.45
2024-01-29T17:23:49.798Z,270.67
2024-01-29T17:26:17.529Z,267.35
2024-01-29T17:28:46.346Z,297.65
2024-01-29T17:31:14.530Z,303.98
2024-01-29T17:33:42.424Z,309.08
2024-01-29T17:36:10.513Z,309.90
2024-01-29T17:38:38.301Z,312.98
2024-01-29T17:41:06.252Z,291.13
2024-01-29T17:43:34.026Z,289.63
2024-01-29T17:46:02.003Z,303.05
2024-01-29T17:48:30.036Z,302.45
2024-01-29T17:50:57.880Z,298.95
2024-01-29T17:53:27.951Z,304.85
2024-01-29T17:55:57.828Z,307.02
2024-01-29T17:58:25.599Z,290.20
2024-01-29T18:00:56.539Z,305.90
2024-01-29T18:03:26.030Z,306.70
2024-01-29T18:05:54.437Z,293.17
2024-01-29T18:08:24.505Z,302.83
2024-01-29T18:10:53.378Z,309.85
2024-01-29T18:13:24.655Z,306.52
2024-01-29T18:15:53.464Z,310.63
2024-01-29T18:18:21.659Z,307.85
2024-01-29T18:20:49.580Z,312.90
2024-01-29T18:23:17.437Z,312.90
2024-01-29T18:25:45.811Z,294.63
2024-01-29T18:28:13.711Z,293.00
2024-01-29T18:30:41.559Z,290.50
2024-01-29T18:33:09.364Z,299.92
2024-01-29T18:35:37.225Z,295.33
2024-01-29T18:38:05.048Z,299.80
2024-01-29T18:40:36.563Z,295.58
2024-01-29T18:43:04.586Z,301.40
2024-01-29T18:45:32.581Z,288.65
2024-01-29T18:48:00.356Z,306.98
2024-01-29T18:50:28.641Z,302.90
2024-01-29T18:52:56.478Z,296.42
2024-01-29T18:55:25.284Z,312.45
2024-01-29T18:57:53.265Z,304.35
2024-01-29T19:00:21.362Z,298.38
2024-01-29T19:02:49.305Z,302.27
2024-01-29T19:05:17.417Z,299.98
2024-01-29T19:07:49.312Z,307.38
2024-01-29T19:10:17.315Z,303.35
2024-01-29T19:12:45.284Z,300.98
2024-01-29T19:15:13.039Z,301.80
2024-01-29T19:17:40.869Z,315.70
2024-01-29T19:20:10.363Z,299.33
2024-01-29T19:22:38.130Z,301.08
2024-01-29T19:25:07.104Z,297.60
2024-01-29T19:27:34.872Z,310.15
2024-01-29T19:30:02.748Z,320.17
2024-01-29T19:32:30.620Z,325.45
2024-01-29T19:34:58.547Z,333.60
2024-01-29T19:37:29.566Z,330.40
2024-01-29T19:40:01.969Z,320.00
2024-01-29T19:42:30.411Z,314.75
2024-01-29T19:44:58.426Z,325.30
2024-01-29T19:47:26.072Z,331.55
2024-01-29T19:49:57.654Z,336.45
2024-01-29T19:52:27.995Z,341.77
2024-01-29T19:54:55.755Z,349.52
2024-01-29T19:57:23.646Z,345.20
2024-01-29T19:59:51.265Z,342.15
2024-01-29T20:02:19.014Z,335.38
2024-01-29T20:04:47.090Z,340.95
2024-01-29T20:07:14.796Z,319.63
2024-01-29T20:09:42.720Z,316.90
2024-01-29T20:12:10.463Z,342.75
2024-01-29T20:14:39.048Z,305.02
2024-01-29T20:17:06.733Z,311.23
2024-01-29T20:19:34.529Z,316.77
2024-01-29T20:22:02.495Z,316.95
2024-01-29T20:24:30.306Z,317.45
2024-01-29T20:26:58.090Z,314.33
2024-01-29T20:29:25.776Z,323.85
2024-01-29T20:31:53.989Z,316.65
2024-01-29T20:34:21.831Z,317.42
2024-01-29T20:36:50.285Z,317.30
2024-01-29T20:39:18.271Z,308.42
2024-01-29T20:41:47.445Z,324.17
2024-01-29T20:44:16.179Z,312.70
2024-01-29T20:46:45.956Z,310.92
2024-01-29T20:49:14.398Z,313.20
2024-01-29T20:51:42.251Z,310.33
2024-01-29T20:54:13.342Z,308.52
2024-01-29T20:56:41.186Z,305.35
2024-01-29T20:59:09.242Z,313.80
2024-01-29T21:01:37.074Z,301.58
2024-01-29T21:04:05.609Z,329.05
2024-01-29T21:06:33.775Z,329.60
2024-01-29T21:09:01.737Z,326.45
2024-01-29T21:11:29.595Z,327.40
2024-01-29T21:13:57.577Z,338.02
2024-01-29T21:16:28.439Z,338.35
2024-01-29T21:18:59.114Z,328.85
2024-01-29T21:21:29.228Z,334.50
2024-01-29T21:23:56.963Z,332.23
2024-01-29T21:26:28.220Z,340.45
2024-01-29T21:28:56.128Z,343.48
2024-01-29T21:31:24.096Z,338.65
2024-01-29T21:33:51.772Z,330.60
2024-01-29T21:36:20.552Z,330.25
2024-01-29T21:38:48.234Z,328.50
2024-01-29T21:41:16.009Z,327.40
2024-01-29T21:43:43.744Z,338.52
2024-01-29T21:46:12.501Z,344.92
2024-01-29T21:48:40.257Z,332.00
2024-01-29T21:51:07.916Z,342.02
2024-01-29T21:53:36.066Z,332.80
2024-01-29T21:56:04.238Z,328.17
2024-01-29T21:58:32.328Z,327.73
2024-01-29T22:01:00.129Z,337.88
2024-01-29T22:03:27.928Z,336.25
2024-01-29T22:05:55.758Z,327.00
2024-01-29T22:08:23.390Z,326.83
2024-01-29T22:10:51.069Z,327.55
2024-01-29T22:13:18.872Z,336.27
2024-01-29T22:15:46.671Z,331.60
2024-01-29T22:18:14.301Z,330.33
2024-01-29T22:20:42.311Z,341.13
2024-01-29T22:23:10.056Z,325.02
2024-01-29T22:25:37.942Z,331.95
2024-01-29T22:28:06.682Z,331.58
2024-01-29T22:30:34.491Z,337.27
2024-01-29T22:33:02.195Z,343.52
2024-01-29T22:35:30.195Z,340.70
2024-01-29T22:37:57.940Z,351.00
2024-01-29T22:40:26.363Z,355.33
2024-01-29T22:42:53.917Z,339.73
2024-01-29T22:45:21.599Z,345.10
2024-01-29T22:47:50.352Z,356.08
2024-01-29T22:50:18.405Z,343.10
2024-01-29T22:52:46.345Z,336.48
2024-01-29T22:55:14.013Z,350.23
2024-01-29T22:57:41.758Z,337.75
2024-01-29T23:00:23.561Z,332.00
2024-01-29T23:05:18.970Z,348.27
2024-01-29T23:07:47.839Z,318.40
2024-01-29T23:10:15.616Z,350.20
2024-01-29T23:12:44.022Z,339.60
2024-01-29T23:15:12.216Z,340.35
2024-01-29T23:17:40.121Z,337.33
2024-01-29T23:20:11.674Z,337.40
2024-01-29T23:25:07.137Z,308.10
2024-01-29T23:27:37.176Z,328.02
2024-01-29T23:30:09.436Z,279.65
2024-01-29T23:32:37.203Z,290.58
2024-01-29T23:35:05.454Z,277.17
2024-01-29T23:37:33.118Z,299.60
2024-01-29T23:40:00.939Z,288.23
2024-01-29T23:42:28.824Z,301.25
2024-01-29T23:44:56.633Z,270.75
2024-01-29T23:47:24.316Z,282.45
2024-01-29T23:49:52.100Z,296.77
2024-01-29T23:52:28.240Z,302.70
2024-01-29T23:54:56.443Z,299.27
2024-01-29T23:57:24.313Z,303.40
2024-01-29T23:59:52.235Z,312.95
